< < Back
Terminal Aerodrome Forecast


Current Version              Previous Versions:   1  2  3  4  5  6  7  8  9  

Terminal Aerodrome Forecast

368
FTUS42 KCAE 251100 AAC
TAFCAE
TAF AMD
KCAE 251110Z 2511/2606 00000KT 1SM BR SCT002
      TEMPO 2511/2512 6SM BR
     FM251300 VRB03KT P6SM SKC
     FM251600 28005KT P6SM SKC
     FM260000 VRB03KT P6SM SKC=

Latest METAR

980
SAUS80 KWBC 252100
MTRCAE
METAR KCAE 252056Z 33006KT 10SM CLR 24/04 A2995 RMK AO2 SLP140 T02390039
56013


USA.gov is the U.S. government's official web portal to all federal, state and local government web resources and services.